Time;durP1;ratioP1;P1;durP2;ratioP2;P2;SDS_P1;SDS_P2;PMS_P1;PMS_P2;Temp;Humidity;BMP_temperature;BMP_pressure;BME280_temperature;BME280_humidity;BME280_pressure;Samples;Min_cycle;Max_cycle;Signal;HPM_P1;HPM_P2
2023/03/25 00:01:28;;;;;;;2.47;0.70;;;10.20;82.60;;;;;;5029958;28;20053;-69
2023/03/25 00:04:10;;;;;;;3.75;0.80;;;10.20;82.70;;;;;;5020301;28;20531;-67
2023/03/25 00:06:43;;;;;;;1.73;0.43;;;10.10;83.00;;;;;;5011911;28;20542;-68
2023/03/25 00:09:16;;;;;;;1.90;0.68;;;10.10;83.20;;;;;;5013683;28;20484;-67
2023/03/25 00:11:50;;;;;;;1.67;0.40;;;10.10;83.40;;;;;;5021499;28;20056;-67
2023/03/25 00:14:23;;;;;;;1.05;0.40;;;10.10;83.50;;;;;;5014279;28;20044;-67
2023/03/25 00:16:57;;;;;;;3.00;0.88;;;10.10;83.50;;;;;;5027699;28;20060;-67
2023/03/25 00:19:32;;;;;;;2.95;0.70;;;10.10;83.70;;;;;;5032613;28;20099;-68
2023/03/25 00:22:06;;;;;;;3.00;0.52;;;10.10;83.60;;;;;;5005275;28;20702;-68
2023/03/25 00:24:39;;;;;;;3.22;0.55;;;10.10;83.50;;;;;;5002881;28;20096;-67
2023/03/25 00:27:13;;;;;;;1.45;0.55;;;10.00;83.50;;;;;;5010591;28;20045;-67
2023/03/25 00:29:47;;;;;;;1.95;0.70;;;10.00;83.60;;;;;;4983292;28;20053;-67
2023/03/25 00:32:21;;;;;;;2.33;0.55;;;9.90;83.70;;;;;;5032759;28;20103;-68
2023/03/25 00:34:55;;;;;;;2.60;0.47;;;10.00;83.50;;;;;;5028365;28;20424;-67
2023/03/25 00:37:29;;;;;;;3.05;0.95;;;10.10;83.40;;;;;;5033006;28;20049;-68
2023/03/25 00:40:04;;;;;;;4.43;0.70;;;10.10;83.50;;;;;;5027182;28;20106;-68
2023/03/25 00:42:48;;;;;;;2.25;0.68;;;10.10;83.30;;;;;;5027112;28;20050;-68
2023/03/25 00:45:22;;;;;;;1.60;0.50;;;10.10;83.00;;;;;;5031469;28;20042;-68
2023/03/25 00:47:56;;;;;;;2.00;0.60;;;10.00;83.30;;;;;;5030608;28;20045;-69
2023/03/25 00:50:30;;;;;;;2.80;1.00;;;9.90;83.30;;;;;;5027661;28;20052;-69
2023/03/25 00:53:03;;;;;;;3.05;0.80;;;9.90;83.20;;;;;;5028600;28;20059;-70
2023/03/25 00:55:43;;;;;;;1.15;0.40;;;10.00;82.80;;;;;;5030351;28;20052;-68
2023/03/25 00:58:16;;;;;;;1.70;0.52;;;9.90;82.80;;;;;;5012639;28;20051;-67
2023/03/25 01:00:50;;;;;;;1.23;0.55;;;9.80;82.80;;;;;;5005003;28;20064;-67
2023/03/25 01:03:23;;;;;;;2.08;0.60;;;9.70;82.90;;;;;;5014994;28;20064;-68
2023/03/25 01:06:16;;;;;;;1.05;0.40;;;9.70;82.90;;;;;;5029045;28;20068;-69
2023/03/25 01:08:52;;;;;;;3.00;0.80;;;9.70;82.70;;;;;;5030367;28;20068;-67
2023/03/25 01:11:28;;;;;;;3.47;0.60;;;9.70;82.60;;;;;;5028569;28;20448;-68
2023/03/25 01:13:59;;;;;;;3.55;1.00;;;9.60;82.80;;;;;;5032188;28;20045;-70
2023/03/25 01:16:32;;;;;;;1.48;0.30;;;9.50;83.00;;;;;;5025828;28;20045;-69
2023/03/25 01:19:06;;;;;;;1.08;0.35;;;9.60;82.90;;;;;;5029868;28;20052;-67
2023/03/25 01:21:40;;;;;;;2.33;0.32;;;9.60;82.50;;;;;;5026884;28;20049;-70
2023/03/25 01:24:14;;;;;;;1.58;0.40;;;9.60;82.50;;;;;;5031263;28;20451;-68
2023/03/25 01:26:48;;;;;;;0.80;0.35;;;9.50;82.60;;;;;;5027269;28;20396;-70
2023/03/25 01:29:22;;;;;;;2.78;0.52;;;9.50;82.70;;;;;;5032666;28;20041;-67
2023/03/25 01:31:55;;;;;;;3.08;0.50;;;9.50;82.70;;;;;;5011140;28;20103;-68
2023/03/25 01:34:29;;;;;;;0.93;0.30;;;9.50;82.50;;;;;;5031374;28;20118;-69
2023/03/25 01:37:05;;;;;;;1.55;0.32;;;9.50;82.60;;;;;;5014596;28;20041;-67
2023/03/25 01:39:39;;;;;;;1.08;0.30;;;9.60;82.30;;;;;;5032228;28;20045;-69
2023/03/25 01:42:12;;;;;;;2.88;0.40;;;9.60;82.50;;;;;;5015657;28;20048;-69
2023/03/25 01:45:20;;;;;;;0.80;0.38;;;9.50;82.50;;;;;;5009557;28;20139;-69
2023/03/25 01:48:02;;;;;;;1.92;0.50;;;9.40;82.80;;;;;;5029110;28;20068;-69
2023/03/25 01:50:40;;;;;;;1.25;0.22;;;9.30;82.90;;;;;;5011876;28;20033;-67
2023/03/25 01:53:16;;;;;;;1.30;0.30;;;9.30;82.80;;;;;;5029196;28;20107;-68
2023/03/25 01:55:53;;;;;;;2.88;0.30;;;9.40;82.80;;;;;;5027700;28;20048;-69
2023/03/25 01:58:29;;;;;;;1.27;0.40;;;9.30;82.70;;;;;;5013371;28;20080;-68
2023/03/25 02:01:20;;;;;;;1.77;0.40;;;9.30;82.80;;;;;;5020543;28;20172;-69
2023/03/25 02:04:08;;;;;;;1.48;0.38;;;9.30;82.70;;;;;;5009291;28;20073;-69
2023/03/25 02:06:51;;;;;;;2.35;0.40;;;9.30;82.50;;;;;;5008544;28;20492;-69
2023/03/25 02:09:26;;;;;;;1.15;0.40;;;9.30;82.30;;;;;;5032320;28;20045;-70
2023/03/25 02:12:00;;;;;;;1.05;0.40;;;9.30;82.30;;;;;;5001904;28;20132;-69
2023/03/25 02:14:37;;;;;;;1.95;0.40;;;9.30;82.20;;;;;;5026153;28;20095;-69
2023/03/25 02:17:20;;;;;;;1.73;0.40;;;9.30;82.00;;;;;;5026458;28;20068;-69
2023/03/25 02:20:12;;;;;;;1.90;0.43;;;9.10;82.40;;;;;;5026598;28;20057;-68
2023/03/25 02:23:13;;;;;;;1.48;0.40;;;9.20;82.30;;;;;;5035273;28;20060;-69
2023/03/25 02:26:19;;;;;;;1.65;0.50;;;9.20;82.10;;;;;;5029721;28;20095;-69
2023/03/25 02:29:00;;;;;;;0.65;0.20;;;9.30;82.00;;;;;;5018158;28;20464;-68
2023/03/25 02:31:49;;;;;;;1.65;0.40;;;9.30;82.10;;;;;;5032234;28;20067;-70
2023/03/25 02:34:36;;;;;;;2.17;0.30;;;9.30;82.00;;;;;;5013988;28;20049;-69
2023/03/25 02:37:39;;;;;;;1.42;0.40;;;9.30;82.00;;;;;;5029450;28;20307;-70
2023/03/25 02:40:18;;;;;;;1.50;0.43;;;9.30;82.00;;;;;;5019759;28;20076;-69
2023/03/25 02:42:55;;;;;;;1.70;0.25;;;9.30;82.10;;;;;;5033883;28;20041;-62
2023/03/25 02:45:32;;;;;;;1.35;0.43;;;9.30;82.00;;;;;;5010797;28;20128;-61
2023/03/25 02:48:12;;;;;;;3.50;0.40;;;9.30;81.90;;;;;;5028108;28;20041;-62
2023/03/25 02:50:51;;;;;;;2.13;0.50;;;9.40;81.90;;;;;;5016059;28;20127;-62
2023/03/25 02:53:29;;;;;;;1.92;0.40;;;9.30;82.10;;;;;;5035299;28;20600;-61
2023/03/25 02:56:09;;;;;;;1.05;0.13;;;9.30;82.20;;;;;;5012599;28;20137;-71
2023/03/25 02:58:45;;;;;;;2.30;0.45;;;9.30;82.10;;;;;;5012774;28;20085;-72
2023/03/25 03:01:21;;;;;;;2.05;0.30;;;9.30;82.00;;;;;;5009889;28;20069;-61
2023/03/25 03:03:56;;;;;;;1.92;0.40;;;9.30;82.20;;;;;;5024628;28;20061;-61
2023/03/25 03:06:37;;;;;;;1.25;0.30;;;9.30;82.40;;;;;;5030945;28;20045;-61
2023/03/25 03:09:24;;;;;;;2.38;0.40;;;9.30;82.60;;;;;;5031211;28;20045;-61
2023/03/25 03:12:13;;;;;;;1.85;0.40;;;9.30;82.90;;;;;;5011379;28;22122;-61
2023/03/25 03:15:07;;;;;;;2.67;0.52;;;9.30;83.00;;;;;;5013129;28;20208;-59
2023/03/25 03:17:50;;;;;;;2.00;0.50;;;9.30;83.10;;;;;;5005729;28;20052;-61
2023/03/25 03:20:31;;;;;;;3.28;0.55;;;9.30;83.20;;;;;;5012609;28;20053;-60
2023/03/25 03:23:09;;;;;;;2.50;0.70;;;9.20;83.30;;;;;;5009882;28;20115;-62
2023/03/25 03:25:50;;;;;;;3.33;0.70;;;9.20;83.10;;;;;;5013764;28;20082;-59
2023/03/25 03:28:30;;;;;;;3.13;0.60;;;9.30;83.20;;;;;;5013327;28;20056;-60
2023/03/25 03:31:08;;;;;;;2.95;0.77;;;9.30;83.00;;;;;;5011348;28;20107;-60
2023/03/25 03:33:49;;;;;;;2.17;0.65;;;9.30;83.00;;;;;;5012462;28;20034;-60
2023/03/25 03:36:28;;;;;;;2.78;0.63;;;9.30;83.10;;;;;;5014253;28;20054;-70
2023/03/25 03:39:08;;;;;;;2.83;0.70;;;9.30;82.90;;;;;;5015682;28;20037;-70
2023/03/25 03:41:44;;;;;;;4.03;0.65;;;9.30;83.20;;;;;;5007328;28;20119;-70
2023/03/25 03:44:24;;;;;;;2.35;0.50;;;9.20;83.30;;;;;;5014532;28;20054;-70
2023/03/25 03:47:02;;;;;;;3.15;0.50;;;9.20;83.30;;;;;;5010717;28;20053;-71
2023/03/25 03:49:38;;;;;;;1.50;0.40;;;9.20;83.40;;;;;;5010041;28;20068;-69
2023/03/25 03:52:17;;;;;;;1.20;0.32;;;9.30;82.90;;;;;;5015453;28;20514;-70
2023/03/25 03:54:54;;;;;;;1.48;0.47;;;9.20;82.80;;;;;;5012058;28;20709;-70
2023/03/25 03:57:32;;;;;;;1.83;0.40;;;9.30;82.90;;;;;;5012624;28;20046;-71
2023/03/25 04:00:14;;;;;;;1.77;0.50;;;9.30;82.70;;;;;;5014389;28;20405;-72
2023/03/25 04:02:50;;;;;;;4.63;0.63;;;9.20;82.70;;;;;;5012541;28;20376;-61
2023/03/25 04:05:33;;;;;;;1.00;0.40;;;9.30;82.70;;;;;;5011257;28;20057;-62
2023/03/25 04:08:10;;;;;;;3.58;0.50;;;9.30;82.60;;;;;;5011996;28;20382;-61
2023/03/25 04:10:51;;;;;;;1.20;0.45;;;9.20;82.70;;;;;;5013283;28;20049;-62
2023/03/25 04:13:29;;;;;;;4.88;0.50;;;9.30;82.60;;;;;;5013742;28;20046;-63
2023/03/25 04:16:05;;;;;;;2.38;0.50;;;9.30;82.40;;;;;;5009532;28;20041;-63
2023/03/25 04:18:39;;;;;;;1.90;0.38;;;9.20;82.30;;;;;;5008096;28;20057;-63
2023/03/25 04:21:14;;;;;;;1.90;0.50;;;9.30;82.30;;;;;;5012848;28;20100;-72
2023/03/25 04:23:48;;;;;;;1.13;0.30;;;9.20;82.30;;;;;;5014563;28;20046;-72
2023/03/25 04:26:22;;;;;;;3.53;0.50;;;9.20;82.20;;;;;;5008764;28;20042;-71
2023/03/25 04:28:48;;;;;;;1.00;0.20;;;9.20;82.30;;;;;;5012748;28;20058;-70
2023/03/25 04:31:24;;;;;;;2.75;0.60;;;9.20;82.20;;;;;;5013347;28;20045;-60
2023/03/25 04:33:59;;;;;;;1.30;0.35;;;9.20;82.20;;;;;;5010913;28;20054;-60
2023/03/25 04:36:36;;;;;;;4.10;0.50;;;9.20;82.10;;;;;;5012330;28;20037;-70
2023/03/25 04:39:11;;;;;;;2.03;0.70;;;9.20;82.00;;;;;;5014970;28;20047;-71
2023/03/25 04:41:44;;;;;;;1.38;0.40;;;9.10;82.20;;;;;;5013178;28;20041;-61
2023/03/25 04:44:19;;;;;;;1.92;0.30;;;9.20;82.00;;;;;;5008036;28;20141;-62
2023/03/25 04:46:55;;;;;;;2.05;0.55;;;9.10;81.80;;;;;;5011750;28;20448;-61
2023/03/25 04:49:29;;;;;;;1.48;0.40;;;9.10;81.80;;;;;;5011887;28;20045;-62
2023/03/25 04:52:03;;;;;;;1.65;0.40;;;9.10;81.70;;;;;;5008437;28;21558;-65
2023/03/25 04:54:37;;;;;;;0.28;0.20;;;9.10;81.60;;;;;;5010017;28;20116;-64
2023/03/25 04:57:10;;;;;;;2.15;0.50;;;9.10;81.50;;;;;;5009252;28;20054;-61
2023/03/25 04:59:44;;;;;;;1.17;0.40;;;9.10;81.60;;;;;;5009748;28;20473;-61
2023/03/25 05:02:19;;;;;;;1.33;0.32;;;9.00;81.70;;;;;;5010634;28;20089;-61
2023/03/25 05:04:53;;;;;;;1.25;0.30;;;9.00;81.80;;;;;;5014506;28;20049;-61
2023/03/25 05:07:28;;;;;;;1.98;0.30;;;9.00;81.80;;;;;;5012340;28;20452;-62
2023/03/25 05:10:02;;;;;;;1.17;0.50;;;9.00;81.60;;;;;;5011223;28;20107;-63
2023/03/25 05:12:35;;;;;;;1.73;0.50;;;9.00;81.70;;;;;;5016796;28;20174;-68
2023/03/25 05:15:09;;;;;;;1.88;0.38;;;9.00;81.60;;;;;;5013412;28;20044;-69
2023/03/25 05:17:44;;;;;;;3.28;0.30;;;9.00;81.70;;;;;;5012452;28;20042;-61
2023/03/25 05:20:18;;;;;;;2.53;0.40;;;9.00;81.70;;;;;;5007928;28;20412;-61
2023/03/25 05:22:52;;;;;;;3.40;0.50;;;9.00;81.70;;;;;;5014804;28;20401;-62
2023/03/25 05:25:27;;;;;;;2.17;0.45;;;9.00;81.70;;;;;;5011211;28;20041;-61
2023/03/25 05:28:04;;;;;;;1.38;0.40;;;9.00;81.60;;;;;;5009781;28;20041;-69
2023/03/25 05:30:40;;;;;;;1.92;0.50;;;9.00;81.70;;;;;;5010428;28;20048;-69
2023/03/25 05:33:17;;;;;;;1.63;0.40;;;9.00;81.60;;;;;;5013111;28;20045;-68
2023/03/25 05:35:51;;;;;;;1.58;0.63;;;8.90;81.70;;;;;;5007979;28;20049;-61
2023/03/25 05:38:24;;;;;;;2.20;0.47;;;9.10;81.50;;;;;;5011477;28;20129;-61
2023/03/25 05:40:59;;;;;;;2.35;0.50;;;9.00;81.30;;;;;;5010119;28;20046;-62
2023/03/25 05:43:34;;;;;;;1.23;0.43;;;9.00;81.40;;;;;;5011293;28;20046;-61
2023/03/25 05:46:08;;;;;;;2.03;0.43;;;9.00;81.20;;;;;;5010633;28;20096;-63
2023/03/25 05:48:42;;;;;;;1.05;0.43;;;9.00;81.10;;;;;;5009266;28;20108;-61
2023/03/25 05:51:20;;;;;;;3.63;0.63;;;9.10;81.00;;;;;;5011972;28;20049;-61
2023/03/25 05:53:54;;;;;;;1.98;0.40;;;9.00;81.10;;;;;;5028398;28;20042;-61
2023/03/25 05:56:27;;;;;;;2.25;0.43;;;9.00;80.90;;;;;;5038771;28;20037;-68
2023/03/25 05:59:01;;;;;;;3.10;0.70;;;9.00;80.90;;;;;;5034045;28;20058;-68
2023/03/25 06:01:36;;;;;;;3.08;0.57;;;9.00;80.80;;;;;;5037785;28;20099;-70
2023/03/25 06:04:12;;;;;;;2.30;0.52;;;9.00;80.70;;;;;;5030070;28;20505;-68
2023/03/25 06:06:51;;;;;;;3.38;0.52;;;9.00;80.70;;;;;;5017313;28;20052;-60
2023/03/25 06:09:25;;;;;;;1.08;0.30;;;9.00;80.80;;;;;;5015441;28;20048;-62
2023/03/25 06:11:58;;;;;;;2.22;0.50;;;9.10;80.80;;;;;;5013705;28;20066;-60
2023/03/25 06:14:31;;;;;;;2.78;0.60;;;9.00;80.70;;;;;;5017343;28;21225;-60
2023/03/25 06:17:04;;;;;;;2.92;0.52;;;9.10;80.70;;;;;;5015416;28;20049;-64
2023/03/25 06:19:46;;;;;;;3.70;0.45;;;9.10;80.40;;;;;;5015242;28;20092;-64
2023/03/25 06:22:20;;;;;;;1.70;0.40;;;9.10;80.40;;;;;;5017479;28;20115;-69
2023/03/25 06:24:54;;;;;;;2.85;0.60;;;9.10;80.80;;;;;;5015150;28;20037;-68
2023/03/25 06:27:27;;;;;;;1.67;0.60;;;9.10;80.90;;;;;;5011454;28;20056;-69
2023/03/25 06:30:00;;;;;;;1.38;0.60;;;9.10;81.20;;;;;;5015610;28;20140;-68
2023/03/25 06:32:34;;;;;;;1.75;0.50;;;9.10;81.20;;;;;;5013841;28;20099;-63
2023/03/25 06:35:10;;;;;;;2.28;0.60;;;9.10;81.20;;;;;;5013180;28;20042;-63
2023/03/25 06:37:45;;;;;;;3.53;0.88;;;9.10;81.20;;;;;;5014836;28;20104;-60
2023/03/25 06:40:27;;;;;;;3.08;0.77;;;9.10;81.40;;;;;;5016379;28;20049;-61
2023/03/25 06:43:03;;;;;;;5.10;0.90;;;9.10;81.40;;;;;;5032719;28;20136;-61
2023/03/25 06:45:55;;;;;;;1.95;0.57;;;9.20;81.20;;;;;;5030542;28;20176;-62
2023/03/25 06:48:48;;;;;;;2.08;0.60;;;9.20;80.90;;;;;;5035274;28;20056;-62
2023/03/25 06:51:23;;;;;;;2.28;0.45;;;9.30;80.90;;;;;;5035751;28;20064;-71
2023/03/25 06:53:57;;;;;;;1.80;0.47;;;9.30;80.90;;;;;;5006859;28;20084;-68
2023/03/25 06:56:30;;;;;;;1.75;0.40;;;9.30;81.00;;;;;;5034276;28;20045;-61
2023/03/25 06:59:04;;;;;;;1.00;0.40;;;9.30;80.90;;;;;;5032890;28;20061;-63
2023/03/25 07:01:37;;;;;;;4.80;0.55;;;9.30;80.90;;;;;;5033383;28;20049;-60
2023/03/25 07:04:04;;;;;;;1.48;0.22;;;9.40;80.80;;;;;;5032328;28;20164;-61
2023/03/25 07:06:45;;;;;;;3.85;0.40;;;9.40;80.70;;;;;;5011595;28;20122;-61
2023/03/25 07:09:19;;;;;;;1.20;0.50;;;9.40;80.70;;;;;;5012813;28;20125;-62
2023/03/25 07:11:52;;;;;;;2.00;0.40;;;9.40;80.60;;;;;;5014279;28;20058;-62
2023/03/25 07:14:25;;;;;;;2.05;0.40;;;9.40;80.60;;;;;;5012728;28;20124;-60
2023/03/25 07:16:58;;;;;;;3.47;0.40;;;9.40;80.50;;;;;;5014353;28;20041;-62
2023/03/25 07:19:31;;;;;;;2.22;0.40;;;9.50;80.50;;;;;;5015300;28;20041;-61
2023/03/25 07:22:05;;;;;;;4.03;0.57;;;9.40;80.40;;;;;;5010108;28;20050;-62
2023/03/25 07:24:39;;;;;;;1.73;0.50;;;9.50;80.50;;;;;;5031343;28;20056;-62
2023/03/25 07:27:12;;;;;;;2.22;0.50;;;9.50;80.30;;;;;;5010932;28;20136;-60
2023/03/25 07:29:55;;;;;;;1.98;0.50;;;9.50;80.10;;;;;;4994098;28;20073;-61
2023/03/25 07:32:29;;;;;;;0.85;0.30;;;9.60;80.00;;;;;;5013349;28;20557;-68
2023/03/25 07:35:02;;;;;;;3.47;0.60;;;9.60;79.90;;;;;;5012512;28;20053;-67
2023/03/25 07:37:37;;;;;;;1.58;0.40;;;9.60;79.90;;;;;;5013537;28;20037;-63
2023/03/25 07:40:12;;;;;;;2.25;0.40;;;9.60;79.70;;;;;;5016994;28;20045;-61
2023/03/25 07:42:45;;;;;;;2.63;0.50;;;9.60;79.80;;;;;;5030539;28;20634;-64
2023/03/25 07:45:24;;;;;;;2.83;0.55;;;9.70;79.70;;;;;;5007832;28;20654;-63
2023/03/25 07:47:57;;;;;;;3.35;1.00;;;9.70;79.50;;;;;;5030584;28;20056;-61
2023/03/25 07:50:30;;;;;;;4.00;0.70;;;9.80;79.50;;;;;;5035728;28;20076;-62
2023/03/25 07:53:04;;;;;;;2.70;0.57;;;9.90;79.20;;;;;;5031896;28;20145;-60
2023/03/25 07:55:38;;;;;;;2.70;0.60;;;10.00;79.20;;;;;;5031532;28;20041;-62
2023/03/25 07:58:11;;;;;;;4.28;0.60;;;10.00;79.00;;;;;;5034868;28;20054;-60
2023/03/25 08:00:44;;;;;;;2.63;0.65;;;10.10;78.90;;;;;;5034686;28;20048;-62
2023/03/25 08:03:17;;;;;;;3.08;0.68;;;10.10;78.80;;;;;;5034758;28;20107;-62
2023/03/25 08:05:56;;;;;;;3.53;0.88;;;10.10;78.70;;;;;;5031971;28;20473;-63
2023/03/25 08:08:31;;;;;;;4.10;0.82;;;10.10;78.60;;;;;;5034497;28;20045;-65
2023/03/25 08:11:05;;;;;;;2.08;0.70;;;10.00;78.40;;;;;;5033129;28;20345;-64
2023/03/25 08:13:39;;;;;;;4.65;0.70;;;10.00;78.20;;;;;;5031894;28;20476;-64
2023/03/25 08:16:13;;;;;;;6.45;0.95;;;10.00;78.30;;;;;;5033858;28;20040;-68
2023/03/25 08:18:47;;;;;;;4.35;1.10;;;10.00;78.30;;;;;;5033206;28;20049;-67
2023/03/25 08:21:23;;;;;;;3.53;0.90;;;10.00;78.60;;;;;;5029998;28;20053;-67
2023/03/25 08:24:01;;;;;;;2.63;0.80;;;10.00;78.50;;;;;;5030019;28;20068;-67
2023/03/25 08:26:35;;;;;;;2.80;0.90;;;10.00;78.40;;;;;;5029026;28;20046;-67
2023/03/25 08:29:08;;;;;;;4.88;1.10;;;10.10;78.50;;;;;;5032058;28;20131;-66
2023/03/25 08:31:45;;;;;;;4.72;1.08;;;10.10;78.30;;;;;;5031094;28;20094;-66
2023/03/25 08:34:20;;;;;;;6.20;1.20;;;10.20;78.20;;;;;;5031300;28;20053;-67
2023/03/25 08:36:54;;;;;;;5.55;1.52;;;10.20;78.10;;;;;;5031002;28;20048;-67
2023/03/25 08:39:35;;;;;;;6.10;1.50;;;10.30;78.00;;;;;;5026425;28;20158;-67
2023/03/25 08:42:09;;;;;;;7.97;1.48;;;10.30;78.00;;;;;;5033258;28;20041;-68
2023/03/25 08:44:43;;;;;;;4.78;1.20;;;10.30;77.80;;;;;;5030979;28;20083;-66
2023/03/25 08:47:17;;;;;;;6.90;1.05;;;10.20;77.90;;;;;;5032508;28;20514;-67
2023/03/25 08:49:50;;;;;;;4.15;0.93;;;10.20;77.70;;;;;;5031269;28;20055;-68
2023/03/25 08:52:23;;;;;;;4.82;1.20;;;10.20;77.60;;;;;;5035019;28;20126;-66
2023/03/25 08:54:58;;;;;;;5.30;1.02;;;10.30;77.60;;;;;;5032284;28;20149;-66
2023/03/25 08:57:32;;;;;;;4.05;0.93;;;10.30;77.40;;;;;;5032204;28;20049;-66
2023/03/25 09:00:11;;;;;;;5.72;1.20;;;10.40;77.40;;;;;;5031725;28;20295;-67
2023/03/25 09:02:44;;;;;;;3.67;1.05;;;10.40;77.20;;;;;;5028752;28;20045;-69
2023/03/25 09:05:18;;;;;;;4.35;0.90;;;10.50;77.10;;;;;;5024729;28;20045;-70
2023/03/25 09:07:59;;;;;;;5.05;1.40;;;10.50;76.90;;;;;;5012285;28;20053;-69
2023/03/25 09:10:34;;;;;;;10.35;1.48;;;10.60;76.60;;;;;;5012247;28;20115;-66
2023/03/25 09:13:08;;;;;;;5.78;1.98;;;10.60;76.20;;;;;;5008932;28;20045;-67
2023/03/25 09:15:41;;;;;;;8.55;2.72;;;10.60;76.30;;;;;;5009759;28;20099;-67
2023/03/25 09:18:14;;;;;;;5.97;2.15;;;10.60;76.20;;;;;;5009066;28;20569;-68
2023/03/25 09:20:47;;;;;;;6.25;1.92;;;10.60;76.10;;;;;;5012492;28;20558;-67
2023/03/25 09:23:20;;;;;;;6.25;1.38;;;10.50;76.00;;;;;;5011055;28;20463;-67
2023/03/25 09:25:55;;;;;;;6.25;1.50;;;10.60;75.80;;;;;;5012273;28;20137;-70
2023/03/25 09:28:29;;;;;;;3.58;0.93;;;10.60;75.90;;;;;;5009197;28;20058;-70
2023/03/25 09:31:03;;;;;;;8.20;1.85;;;10.60;75.50;;;;;;5010603;28;20129;-61
2023/03/25 09:33:36;;;;;;;7.55;1.80;;;10.70;75.00;;;;;;5007810;28;20045;-61
2023/03/25 09:36:04;;;;;;;8.45;1.23;;;10.70;74.90;;;;;;5012029;28;20054;-61
2023/03/25 09:38:37;;;;;;;6.25;1.90;;;10.80;74.80;;;;;;5010927;28;20058;-61
2023/03/25 09:41:30;;;;;;;9.18;2.08;;;10.90;74.70;;;;;;5010310;28;20127;-66
2023/03/25 09:44:14;;;;;;;8.68;1.80;;;10.90;74.50;;;;;;5013274;28;20056;-67
2023/03/25 09:46:48;;;;;;;5.53;1.60;;;10.90;74.90;;;;;;5006241;28;20209;-63
2023/03/25 09:49:30;;;;;;;6.15;1.52;;;10.90;74.50;;;;;;5012979;28;20064;-64
2023/03/25 09:52:04;;;;;;;6.28;1.50;;;10.90;74.20;;;;;;5011071;28;20068;-63
2023/03/25 09:54:43;;;;;;;7.28;1.33;;;10.90;74.10;;;;;;5012558;28;20145;-62
2023/03/25 09:57:22;;;;;;;7.68;1.30;;;11.00;74.10;;;;;;5009125;28;20057;-62
2023/03/25 09:59:57;;;;;;;6.70;1.88;;;11.00;73.70;;;;;;5010928;28;20052;-60
2023/03/25 10:02:36;;;;;;;6.25;1.52;;;11.00;73.70;;;;;;5012302;28;20540;-62
2023/03/25 10:05:27;;;;;;;6.40;1.85;;;11.00;73.40;;;;;;5012329;28;20533;-62
2023/03/25 10:08:12;;;;;;;8.98;1.73;;;11.00;73.40;;;;;;5014827;28;20591;-62
2023/03/25 10:10:52;;;;;;;7.63;1.83;;;10.90;73.50;;;;;;5008922;28;20430;-61
2023/03/25 10:13:36;;;;;;;6.55;1.40;;;10.90;73.60;;;;;;5033351;28;20140;-61
2023/03/25 10:16:21;;;;;;;5.32;1.40;;;10.80;73.30;;;;;;5005987;28;20423;-60
2023/03/25 10:19:10;;;;;;;6.00;1.38;;;10.80;73.30;;;;;;5010616;28;20041;-61
2023/03/25 10:21:50;;;;;;;8.35;1.40;;;10.80;73.60;;;;;;5011577;28;20519;-62
2023/03/25 10:24:29;;;;;;;4.80;1.13;;;10.70;73.80;;;;;;5012935;28;20119;-62
2023/03/25 10:27:05;;;;;;;4.00;0.90;;;10.60;75.00;;;;;;5011651;28;20042;-63
2023/03/25 10:29:45;;;;;;;2.95;0.55;;;10.00;75.90;;;;;;5012421;28;20041;-62
2023/03/25 10:32:31;;;;;;;1.23;0.30;;;9.70;75.80;;;;;;5009859;28;20049;-63
2023/03/25 10:35:11;;;;;;;0.40;0.13;;;9.20;76.40;;;;;;5007648;28;20468;-62
2023/03/25 10:37:46;;;;;;;1.70;0.40;;;8.90;77.10;;;;;;5012169;28;20062;-63
2023/03/25 10:40:25;;;;;;;0.75;0.30;;;8.70;77.50;;;;;;5013026;28;20055;-63
2023/03/25 10:43:12;;;;;;;2.95;0.40;;;8.80;77.30;;;;;;5015233;28;20701;-62
2023/03/25 10:45:49;;;;;;;3.17;0.30;;;8.60;77.50;;;;;;5013912;28;20480;-63
2023/03/25 10:48:31;;;;;;;1.38;0.30;;;8.40;78.60;;;;;;5014245;28;20087;-62
2023/03/25 10:51:09;;;;;;;1.25;0.22;;;8.40;79.10;;;;;;5015253;28;20131;-63
2023/03/25 10:53:46;;;;;;;1.20;0.40;;;8.50;79.10;;;;;;5014589;28;20583;-63
2023/03/25 10:56:24;;;;;;;1.63;0.50;;;8.50;79.20;;;;;;5015845;28;20061;-62
2023/03/25 10:59:00;;;;;;;1.73;0.57;;;8.70;79.30;;;;;;5016642;28;20105;-61
2023/03/25 11:01:39;;;;;;;0.90;0.45;;;8.90;79.40;;;;;;5018154;28;20050;-61
2023/03/25 11:04:16;;;;;;;0.80;0.45;;;9.30;79.80;;;;;;5014859;28;20449;-60
2023/03/25 11:07:04;;;;;;;2.22;0.50;;;9.70;79.30;;;;;;5014321;28;20052;-61
2023/03/25 11:09:37;;;;;;;2.40;0.60;;;9.90;79.20;;;;;;5016975;28;20103;-61
2023/03/25 11:12:11;;;;;;;1.50;0.50;;;10.10;79.40;;;;;;5036834;28;20049;-63
2023/03/25 11:14:44;;;;;;;1.45;0.32;;;10.30;79.20;;;;;;5037560;28;20099;-62
2023/03/25 11:17:24;;;;;;;1.55;0.47;;;10.40;78.70;;;;;;5032778;28;20065;-69
2023/03/25 11:20:01;;;;;;;0.93;0.28;;;10.50;78.30;;;;;;5037821;28;20471;-69
2023/03/25 11:22:37;;;;;;;1.27;0.43;;;10.70;78.20;;;;;;5016414;28;20033;-69
2023/03/25 11:25:18;;;;;;;1.20;0.30;;;10.80;77.70;;;;;;5015681;28;20343;-70
2023/03/25 11:27:55;;;;;;;3.10;0.50;;;10.70;77.30;;;;;;5011743;28;20080;-70
2023/03/25 11:30:28;;;;;;;0.93;0.32;;;10.70;77.90;;;;;;5015982;28;20076;-69
2023/03/25 11:33:05;;;;;;;3.25;0.47;;;10.70;77.70;;;;;;5015284;28;20140;-70
2023/03/25 11:35:43;;;;;;;1.42;0.47;;;10.80;77.70;;;;;;5011248;28;20136;-68
2023/03/25 11:38:20;;;;;;;3.17;0.50;;;10.90;77.60;;;;;;5010932;28;20069;-68
2023/03/25 11:40:55;;;;;;;1.52;0.40;;;10.90;77.30;;;;;;5012809;28;20057;-69
2023/03/25 11:43:33;;;;;;;2.15;0.30;;;10.80;77.40;;;;;;5012686;28;20412;-70
2023/03/25 11:46:10;;;;;;;2.60;0.70;;;10.90;77.70;;;;;;5014209;28;20037;-60
2023/03/25 11:48:46;;;;;;;1.95;0.57;;;11.10;77.60;;;;;;5013961;28;20050;-62
2023/03/25 11:51:22;;;;;;;1.73;0.40;;;11.20;77.80;;;;;;5009112;28;20074;-70
2023/03/25 11:53:58;;;;;;;2.13;0.40;;;11.30;78.10;;;;;;5014792;28;20089;-70
2023/03/25 11:56:35;;;;;;;2.60;0.60;;;11.40;77.70;;;;;;5015387;28;20053;-61
2023/03/25 11:59:17;;;;;;;1.63;0.50;;;11.50;77.60;;;;;;5011518;28;20049;-62
2023/03/25 12:01:52;;;;;;;3.25;0.70;;;11.60;77.80;;;;;;5006786;28;20440;-61
2023/03/25 12:04:27;;;;;;;3.13;0.82;;;11.70;78.00;;;;;;5012629;28;20038;-61
2023/03/25 12:07:10;;;;;;;4.40;0.70;;;11.70;78.10;;;;;;5012285;28;20469;-62
2023/03/25 12:09:54;;;;;;;2.15;0.65;;;11.70;78.00;;;;;;5031994;28;20412;-62
2023/03/25 12:12:46;;;;;;;2.30;0.80;;;11.70;77.80;;;;;;5012685;28;20052;-70
2023/03/25 12:15:29;;;;;;;0.88;0.40;;;11.70;77.60;;;;;;5016871;28;20030;-69
2023/03/25 12:18:20;;;;;;;1.50;0.40;;;11.80;77.20;;;;;;5015056;28;20394;-68
2023/03/25 12:21:08;;;;;;;3.42;0.60;;;11.80;77.00;;;;;;5034349;28;20048;-61
2023/03/25 12:23:53;;;;;;;2.33;0.55;;;12.00;76.60;;;;;;5014776;28;20044;-61
2023/03/25 12:26:32;;;;;;;3.58;0.93;;;12.10;76.40;;;;;;5011681;28;20442;-62
2023/03/25 12:29:14;;;;;;;3.33;0.82;;;12.10;76.40;;;;;;5014513;28;20057;-62
2023/03/25 12:32:00;;;;;;;3.55;0.80;;;12.10;76.10;;;;;;5012981;28;20049;-62
2023/03/25 12:34:44;;;;;;;2.25;0.73;;;12.10;75.60;;;;;;5013642;28;20096;-63
2023/03/25 12:37:30;;;;;;;3.95;0.77;;;12.20;75.20;;;;;;5015174;28;20130;-61
2023/03/25 12:40:24;;;;;;;1.88;0.50;;;12.20;74.80;;;;;;5033259;28;20068;-63
2023/03/25 12:43:04;;;;;;;3.95;0.70;;;12.10;74.30;;;;;;5034139;28;20037;-62
2023/03/25 12:45:47;;;;;;;4.18;0.77;;;12.10;73.90;;;;;;5032950;28;20222;-63
2023/03/25 12:48:37;;;;;;;3.53;0.50;;;12.10;73.00;;;;;;5028758;28;20060;-62
2023/03/25 12:51:23;;;;;;;2.92;0.60;;;12.20;72.70;;;;;;5030764;28;20053;-62
2023/03/25 12:54:06;;;;;;;2.60;0.65;;;12.20;72.70;;;;;;5030757;28;20796;-63
2023/03/25 12:56:53;;;;;;;3.45;0.90;;;12.30;73.10;;;;;;5011112;28;20400;-62
2023/03/25 12:59:53;;;;;;;4.05;0.70;;;12.40;72.40;;;;;;5032164;28;20040;-63
2023/03/25 13:02:45;;;;;;;4.20;0.95;;;12.30;72.00;;;;;;5028680;28;20049;-62
2023/03/25 13:05:21;;;;;;;4.32;0.80;;;12.50;72.20;;;;;;5013482;28;20060;-63
2023/03/25 13:08:07;;;;;;;2.42;0.77;;;12.40;71.20;;;;;;5032486;28;20060;-62
2023/03/25 13:10:47;;;;;;;4.85;1.02;;;12.40;70.40;;;;;;5033256;28;20506;-62
2023/03/25 13:13:24;;;;;;;2.00;0.55;;;12.40;70.30;;;;;;5031436;28;20046;-62
2023/03/25 13:16:02;;;;;;;4.13;0.80;;;12.40;69.80;;;;;;5031812;28;20052;-63
2023/03/25 13:18:41;;;;;;;1.48;0.40;;;12.50;69.90;;;;;;5031243;28;20041;-62
2023/03/25 13:21:20;;;;;;;2.88;0.70;;;12.60;69.40;;;;;;5029884;28;20511;-62
2023/03/25 13:23:58;;;;;;;4.15;0.90;;;12.50;69.40;;;;;;5028372;28;20510;-63
2023/03/25 13:26:35;;;;;;;1.73;0.52;;;12.40;68.40;;;;;;4987359;28;20077;-63
2023/03/25 13:29:23;;;;;;;2.60;0.93;;;12.50;68.10;;;;;;4999897;28;20046;-61
2023/03/25 13:32:00;;;;;;;4.57;0.88;;;12.50;68.80;;;;;;5007188;28;20127;-70
2023/03/25 13:34:40;;;;;;;3.40;1.40;;;12.50;69.00;;;;;;5005609;28;20052;-71
2023/03/25 13:37:19;;;;;;;4.82;0.90;;;12.60;67.80;;;;;;5025867;28;20068;-68
2023/03/25 13:40:11;;;;;;;3.70;0.80;;;12.60;67.40;;;;;;5026641;28;20048;-66
2023/03/25 13:42:51;;;;;;;4.00;1.00;;;12.80;67.80;;;;;;5032894;28;20561;-66
2023/03/25 13:45:26;;;;;;;3.85;1.10;;;12.90;66.70;;;;;;5034063;28;20045;-67
2023/03/25 13:48:07;;;;;;;3.10;0.70;;;12.80;66.60;;;;;;5032807;28;20074;-68